sensor_id;sensor_type;location;lat;lon;timestamp;pressure;altitude;pressure_sealevel;temperature;humidity
16194;BME280;8204;53.582;10.080;2022-11-09T00:00:53;100128.81;;;15.50;100.00
16194;BME280;8204;53.582;10.080;2022-11-09T00:03:22;100139.38;;;15.50;100.00
16194;BME280;8204;53.582;10.080;2022-11-09T00:05:54;100139.78;;;15.47;100.00
16194;BME280;8204;53.582;10.080;2022-11-09T00:08:23;100135.50;;;15.46;100.00
16194;BME280;8204;53.582;10.080;2022-11-09T00:10:52;100131.22;;;15.45;100.00
16194;BME280;8204;53.582;10.080;2022-11-09T00:13:21;100126.16;;;15.44;100.00
16194;BME280;8204;53.582;10.080;2022-11-09T00:15:50;100131.88;;;15.41;100.00
16194;BME280;8204;53.582;10.080;2022-11-09T00:18:22;100127.81;;;15.38;100.00
16194;BME280;8204;53.582;10.080;2022-11-09T00:20:51;100137.75;;;15.36;100.00
16194;BME280;8204;53.582;10.080;2022-11-09T00:23:20;100130.84;;;15.35;100.00
16194;BME280;8204;53.582;10.080;2022-11-09T00:25:49;100114.00;;;15.36;100.00
16194;BME280;8204;53.582;10.080;2022-11-09T00:28:18;100108.72;;;15.36;100.00
16194;BME280;8204;53.582;10.080;2022-11-09T00:30:47;100108.53;;;15.32;100.00
16194;BME280;8204;53.582;10.080;2022-11-09T00:33:16;100103.25;;;15.32;100.00
16194;BME280;8204;53.582;10.080;2022-11-09T00:35:47;100093.28;;;15.33;100.00
16194;BME280;8204;53.582;10.080;2022-11-09T00:38:16;100084.75;;;15.32;100.00
16194;BME280;8204;53.582;10.080;2022-11-09T00:40:45;100087.41;;;15.32;100.00
16194;BME280;8204;53.582;10.080;2022-11-09T00:43:14;100089.84;;;15.33;100.00
16194;BME280;8204;53.582;10.080;2022-11-09T00:45:45;100078.88;;;15.30;100.00
16194;BME280;8204;53.582;10.080;2022-11-09T00:48:14;100080.50;;;15.31;100.00
16194;BME280;8204;53.582;10.080;2022-11-09T00:50:50;100082.94;;;15.26;100.00
16194;BME280;8204;53.582;10.080;2022-11-09T00:53:20;100081.31;;;15.25;100.00
16194;BME280;8204;53.582;10.080;2022-11-09T00:55:54;100067.69;;;15.28;100.00
16194;BME280;8204;53.582;10.080;2022-11-09T00:58:23;100073.41;;;15.25;100.00
16194;BME280;8204;53.582;10.080;2022-11-09T01:00:53;100063.03;;;15.23;100.00
16194;BME280;8204;53.582;10.080;2022-11-09T01:03:23;100071.94;;;15.22;100.00
16194;BME280;8204;53.582;10.080;2022-11-09T01:05:58;100066.50;;;15.24;100.00
16194;BME280;8204;53.582;10.080;2022-11-09T01:08:27;100056.94;;;15.23;100.00
16194;BME280;8204;53.582;10.080;2022-11-09T01:10:56;100059.94;;;15.20;100.00
16194;BME280;8204;53.582;10.080;2022-11-09T01:13:26;100058.94;;;15.21;100.00
16194;BME280;8204;53.582;10.080;2022-11-09T01:15:55;100050.22;;;15.20;100.00
16194;BME280;8204;53.582;10.080;2022-11-09T01:18:23;100048.38;;;15.21;100.00
16194;BME280;8204;53.582;10.080;2022-11-09T01:20:55;100044.72;;;15.22;100.00
16194;BME280;8204;53.582;10.080;2022-11-09T01:23:24;100043.09;;;15.21;100.00
16194;BME280;8204;53.582;10.080;2022-11-09T01:25:56;100042.91;;;15.22;100.00
16194;BME280;8204;53.582;10.080;2022-11-09T01:28:25;100035.41;;;15.19;100.00
16194;BME280;8204;53.582;10.080;2022-11-09T01:30:54;100035.00;;;15.16;100.00
16194;BME280;8204;53.582;10.080;2022-11-09T01:33:23;100020.38;;;15.13;100.00
16194;BME280;8204;53.582;10.080;2022-11-09T01:36:00;100019.56;;;15.13;100.00
16194;BME280;8204;53.582;10.080;2022-11-09T01:38:30;100020.38;;;15.07;100.00
16194;BME280;8204;53.582;10.080;2022-11-09T01:40:59;100008.81;;;15.08;100.00
16194;BME280;8204;53.582;10.080;2022-11-09T01:43:30;100003.13;;;15.04;100.00
16194;BME280;8204;53.582;10.080;2022-11-09T01:46:02;100012.06;;;15.03;100.00
16194;BME280;8204;53.582;10.080;2022-11-09T01:48:37;100007.19;;;15.00;100.00
16194;BME280;8204;53.582;10.080;2022-11-09T01:51:12;100011.66;;;15.00;100.00
16194;BME280;8204;53.582;10.080;2022-11-09T01:53:44;100010.06;;;14.99;100.00
16194;BME280;8204;53.582;10.080;2022-11-09T01:56:16;100004.97;;;14.97;100.00
16194;BME280;8204;53.582;10.080;2022-11-09T01:58:49;99996.06;;;14.92;100.00
16194;BME280;8204;53.582;10.080;2022-11-09T02:01:18;99985.69;;;14.90;100.00
16194;BME280;8204;53.582;10.080;2022-11-09T02:03:51;99983.69;;;14.86;100.00
16194;BME280;8204;53.582;10.080;2022-11-09T02:06:26;99983.84;;;14.84;100.00
16194;BME280;8204;53.582;10.080;2022-11-09T02:09:00;99976.16;;;14.83;100.00
16194;BME280;8204;53.582;10.080;2022-11-09T02:11:32;99975.16;;;14.84;100.00
16194;BME280;8204;53.582;10.080;2022-11-09T02:14:02;99975.94;;;14.84;100.00
16194;BME280;8204;53.582;10.080;2022-11-09T02:16:32;99970.47;;;14.79;100.00
16194;BME280;8204;53.582;10.080;2022-11-09T02:19:01;99962.75;;;14.84;100.00
16194;BME280;8204;53.582;10.080;2022-11-09T02:21:32;99968.44;;;14.88;100.00
16194;BME280;8204;53.582;10.080;2022-11-09T02:24:01;99968.03;;;14.91;100.00
16194;BME280;8204;53.582;10.080;2022-11-09T02:26:35;99952.22;;;14.91;100.00
16194;BME280;8204;53.582;10.080;2022-11-09T02:29:08;99949.59;;;14.91;100.00
16194;BME280;8204;53.582;10.080;2022-11-09T02:31:41;99956.47;;;14.92;100.00
16194;BME280;8204;53.582;10.080;2022-11-09T02:34:13;99962.97;;;14.89;100.00
16194;BME280;8204;53.582;10.080;2022-11-09T02:36:47;99961.94;;;14.97;100.00
16194;BME280;8204;53.582;10.080;2022-11-09T02:39:18;99959.50;;;15.02;100.00
16194;BME280;8204;53.582;10.080;2022-11-09T02:41:50;99966.78;;;15.00;100.00
16194;BME280;8204;53.582;10.080;2022-11-09T02:44:22;99953.81;;;15.05;100.00
16194;BME280;8204;53.582;10.080;2022-11-09T02:46:52;99968.44;;;15.07;100.00
16194;BME280;8204;53.582;10.080;2022-11-09T02:49:21;99965.97;;;15.12;100.00
16194;BME280;8204;53.582;10.080;2022-11-09T02:51:52;99966.41;;;15.09;100.00
16194;BME280;8204;53.582;10.080;2022-11-09T02:54:21;99973.09;;;15.12;100.00
16194;BME280;8204;53.582;10.080;2022-11-09T02:56:50;99975.72;;;15.12;100.00
16194;BME280;8204;53.582;10.080;2022-11-09T02:59:19;99962.72;;;15.10;100.00
16194;BME280;8204;53.582;10.080;2022-11-09T03:01:48;99966.41;;;15.09;100.00
16194;BME280;8204;53.582;10.080;2022-11-09T03:04:16;99969.22;;;15.08;100.00
16194;BME280;8204;53.582;10.080;2022-11-09T03:06:45;99973.09;;;15.12;100.00
16194;BME280;8204;53.582;10.080;2022-11-09T03:09:17;99967.19;;;15.10;100.00
16194;BME280;8204;53.582;10.080;2022-11-09T03:11:46;99968.00;;;15.10;100.00
16194;BME280;8204;53.582;10.080;2022-11-09T03:14:15;99961.31;;;15.08;100.00
16194;BME280;8204;53.582;10.080;2022-11-09T03:16:44;99969.03;;;15.09;100.00
16194;BME280;8204;53.582;10.080;2022-11-09T03:19:13;99967.41;;;15.08;100.00
16194;BME280;8204;53.582;10.080;2022-11-09T03:21:42;99970.84;;;15.09;100.00
16194;BME280;8204;53.582;10.080;2022-11-09T03:24:11;99980.41;;;15.10;100.00
16194;BME280;8204;53.582;10.080;2022-11-09T03:26:42;99970.47;;;15.12;100.00
16194;BME280;8204;53.582;10.080;2022-11-09T03:29:11;99975.72;;;15.12;100.00
16194;BME280;8204;53.582;10.080;2022-11-09T03:31:40;99963.13;;;15.14;100.00
16194;BME280;8204;53.582;10.080;2022-11-09T03:34:09;99968.00;;;15.10;100.00
16194;BME280;8204;53.582;10.080;2022-11-09T03:36:37;99961.53;;;15.06;100.00
16194;BME280;8204;53.582;10.080;2022-11-09T03:39:06;99957.66;;;15.09;100.00
16194;BME280;8204;53.582;10.080;2022-11-09T03:41:35;99966.41;;;15.09;100.00
16194;BME280;8204;53.582;10.080;2022-11-09T03:44:06;99962.56;;;14.99;100.00
16194;BME280;8204;53.582;10.080;2022-11-09T03:46:35;99966.41;;;15.03;100.00
16194;BME280;8204;53.582;10.080;2022-11-09T03:49:04;99955.84;;;14.96;100.00
16194;BME280;8204;53.582;10.080;2022-11-09T03:51:33;99958.66;;;15.08;100.00
16194;BME280;8204;53.582;10.080;2022-11-09T03:54:02;99945.47;;;15.08;100.00
16194;BME280;8204;53.582;10.080;2022-11-09T03:56:31;99945.50;;;15.01;100.00
16194;BME280;8204;53.582;10.080;2022-11-09T03:59:00;99939.63;;;14.99;100.00
16194;BME280;8204;53.582;10.080;2022-11-09T04:01:31;99938.00;;;15.05;100.00
16194;BME280;8204;53.582;10.080;2022-11-09T04:04:00;99937.56;;;15.08;100.00
16194;BME280;8204;53.582;10.080;2022-11-09T04:06:29;99937.56;;;15.08;100.00
16194;BME280;8204;53.582;10.080;2022-11-09T04:08:57;99949.75;;;15.09;100.00
16194;BME280;8204;53.582;10.080;2022-11-09T04:11:26;99953.00;;;15.11;100.00
16194;BME280;8204;53.582;10.080;2022-11-09T04:13:55;99948.72;;;15.10;100.00
16194;BME280;8204;53.582;10.080;2022-11-09T04:16:24;99945.28;;;15.09;100.00
16194;BME280;8204;53.582;10.080;2022-11-09T04:18:55;99935.94;;;15.07;100.00
16194;BME280;8204;53.582;10.080;2022-11-09T04:21:24;99937.56;;;15.08;100.00
16194;BME280;8204;53.582;10.080;2022-11-09T04:23:53;99922.34;;;15.10;100.00
16194;BME280;8204;53.582;10.080;2022-11-09T04:26:21;99926.41;;;15.06;100.00
16194;BME280;8204;53.582;10.080;2022-11-09T04:28:50;99928.63;;;15.09;100.00
16194;BME280;8204;53.582;10.080;2022-11-09T04:31:19;99933.13;;;15.08;100.00
16194;BME280;8204;53.582;10.080;2022-11-09T04:33:48;99938.56;;;15.07;100.00
16194;BME280;8204;53.582;10.080;2022-11-09T04:36:20;99934.91;;;15.08;100.00
16194;BME280;8204;53.582;10.080;2022-11-09T04:38:49;99924.97;;;15.10;100.00
16194;BME280;8204;53.582;10.080;2022-11-09T04:41:17;99918.47;;;15.12;100.00
16194;BME280;8204;53.582;10.080;2022-11-09T04:43:46;99918.28;;;15.07;100.00
16194;BME280;8204;53.582;10.080;2022-11-09T04:46:15;99912.81;;;15.09;100.00
16194;BME280;8204;53.582;10.080;2022-11-09T04:48:44;99914.03;;;15.00;100.00
16194;BME280;8204;53.582;10.080;2022-11-09T04:51:13;99900.66;;;15.01;100.00
16194;BME280;8204;53.582;10.080;2022-11-09T04:53:44;99903.88;;;15.03;100.00
16194;BME280;8204;53.582;10.080;2022-11-09T04:56:13;99912.00;;;15.02;100.00
16194;BME280;8204;53.582;10.080;2022-11-09T04:58:42;99900.44;;;15.03;100.00
16194;BME280;8204;53.582;10.080;2022-11-09T05:01:12;99907.56;;;15.02;100.00
16194;BME280;8204;53.582;10.080;2022-11-09T05:03:41;99913.41;;;15.04;100.00
16194;BME280;8204;53.582;10.080;2022-11-09T05:06:10;99914.25;;;15.05;100.00
16194;BME280;8204;53.582;10.080;2022-11-09T05:08:54;99913.00;;;15.01;100.00
16194;BME280;8204;53.582;10.080;2022-11-09T05:11:23;99917.91;;;15.04;100.00
16194;BME280;8204;53.582;10.080;2022-11-09T05:13:52;99908.75;;;15.00;100.00
16194;BME280;8204;53.582;10.080;2022-11-09T05:16:21;99916.28;;;15.03;100.00
16194;BME280;8204;53.582;10.080;2022-11-09T05:18:51;99921.34;;;15.04;100.00
16194;BME280;8204;53.582;10.080;2022-11-09T05:21:20;99919.69;;;15.03;100.00
16194;BME280;8204;53.582;10.080;2022-11-09T05:23:49;99929.47;;;15.03;100.00
16194;BME280;8204;53.582;10.080;2022-11-09T05:26:29;99913.84;;;15.01;100.00
16194;BME280;8204;53.582;10.080;2022-11-09T05:28:59;99918.09;;;15.02;100.00
16194;BME280;8204;53.582;10.080;2022-11-09T05:31:28;99923.16;;;15.04;100.00
16194;BME280;8204;53.582;10.080;2022-11-09T05:33:58;99913.63;;;15.03;100.00
16194;BME280;8204;53.582;10.080;2022-11-09T05:36:27;99909.97;;;15.04;100.00
16194;BME280;8204;53.582;10.080;2022-11-09T05:38:59;99911.78;;;15.03;100.00
16194;BME280;8204;53.582;10.080;2022-11-09T05:41:30;99907.94;;;15.06;100.00
16194;BME280;8204;53.582;10.080;2022-11-09T05:43:59;99906.72;;;15.08;100.00
16194;BME280;8204;53.582;10.080;2022-11-09T05:46:28;99910.78;;;15.11;100.00
16194;BME280;8204;53.582;10.080;2022-11-09T05:48:58;99907.53;;;15.15;100.00
16194;BME280;8204;53.582;10.080;2022-11-09T05:51:27;99896.75;;;15.10;100.00
16194;BME280;8204;53.582;10.080;2022-11-09T05:53:56;99898.16;;;15.13;100.00
16194;BME280;8204;53.582;10.080;2022-11-09T05:56:25;99903.03;;;15.16;100.00
16194;BME280;8204;53.582;10.080;2022-11-09T05:58:56;99903.44;;;15.13;100.00
16194;BME280;8204;53.582;10.080;2022-11-09T06:01:25;99913.59;;;15.16;100.00
16194;BME280;8204;53.582;10.080;2022-11-09T06:03:54;99910.75;;;15.17;100.00
16194;BME280;8204;53.582;10.080;2022-11-09T06:06:22;99915.44;;;15.15;100.00
16194;BME280;8204;53.582;10.080;2022-11-09T06:08:51;99914.81;;;15.13;100.00
16194;BME280;8204;53.582;10.080;2022-11-09T06:11:20;99905.91;;;15.14;100.00
16194;BME280;8204;53.582;10.080;2022-11-09T06:13:49;99902.44;;;15.14;100.00
16194;BME280;8204;53.582;10.080;2022-11-09T06:16:20;99911.97;;;15.15;100.00
16194;BME280;8204;53.582;10.080;2022-11-09T06:18:49;99921.31;;;15.11;100.00
16194;BME280;8204;53.582;10.080;2022-11-09T06:21:18;99917.06;;;15.10;100.00
16194;BME280;8204;53.582;10.080;2022-11-09T06:23:47;99915.84;;;15.12;100.00
16194;BME280;8204;53.582;10.080;2022-11-09T06:26:16;99913.19;;;15.12;100.00
16194;BME280;8204;53.582;10.080;2022-11-09T06:28:45;99926.59;;;15.11;100.00
16194;BME280;8204;53.582;10.080;2022-11-09T06:31:15;99924.97;;;15.03;100.00
16194;BME280;8204;53.582;10.080;2022-11-09T06:33:48;99937.59;;;15.01;100.00
16194;BME280;8204;53.582;10.080;2022-11-09T06:36:16;99939.63;;;15.06;100.00
16194;BME280;8204;53.582;10.080;2022-11-09T06:38:47;99942.66;;;15.09;100.00
16194;BME280;8204;53.582;10.080;2022-11-09T06:41:17;99943.44;;;15.03;100.00
16194;BME280;8204;53.582;10.080;2022-11-09T06:43:45;99951.97;;;15.12;100.00
16194;BME280;8204;53.582;10.080;2022-11-09T06:46:14;99961.13;;;15.03;100.00
16194;BME280;8204;53.582;10.080;2022-11-09T06:48:47;99955.22;;;15.01;100.00
16194;BME280;8204;53.582;10.080;2022-11-09T06:51:16;99956.06;;;15.01;100.00
16194;BME280;8204;53.582;10.080;2022-11-09T06:53:45;99957.88;;;15.07;100.00
16194;BME280;8204;53.582;10.080;2022-11-09T06:56:14;99958.47;;;15.03;100.00
16194;BME280;8204;53.582;10.080;2022-11-09T06:58:43;99961.91;;;15.03;100.00
16194;BME280;8204;53.582;10.080;2022-11-09T07:01:15;99966.00;;;15.06;100.00
16194;BME280;8204;53.582;10.080;2022-11-09T07:03:44;99971.66;;;14.96;100.00
16194;BME280;8204;53.582;10.080;2022-11-09T07:06:15;99968.25;;;15.02;100.00
16194;BME280;8204;53.582;10.080;2022-11-09T07:08:44;99969.66;;;15.05;100.00
16194;BME280;8204;53.582;10.080;2022-11-09T07:11:14;99985.06;;;15.08;100.00
16194;BME280;8204;53.582;10.080;2022-11-09T07:13:46;99978.56;;;15.04;100.00
16194;BME280;8204;53.582;10.080;2022-11-09T07:16:16;99982.63;;;15.06;100.00
16194;BME280;8204;53.582;10.080;2022-11-09T07:18:45;99974.53;;;15.01;100.00
16194;BME280;8204;53.582;10.080;2022-11-09T07:21:17;99970.66;;;15.04;100.00
16194;BME280;8204;53.582;10.080;2022-11-09T07:23:47;99973.28;;;15.10;100.00
16194;BME280;8204;53.582;10.080;2022-11-09T07:26:16;99965.97;;;15.12;100.00
16194;BME280;8204;53.582;10.080;2022-11-09T07:28:45;99983.03;;;15.10;100.00
16194;BME280;8204;53.582;10.080;2022-11-09T07:31:14;99975.13;;;15.10;100.00
16194;BME280;8204;53.582;10.080;2022-11-09T07:33:43;99990.75;;;15.05;100.00
16194;BME280;8204;53.582;10.080;2022-11-09T07:36:12;99986.69;;;15.09;100.00
16194;BME280;8204;53.582;10.080;2022-11-09T07:38:44;99992.56;;;15.11;100.00
16194;BME280;8204;53.582;10.080;2022-11-09T07:41:12;99996.84;;;15.12;100.00
16194;BME280;8204;53.582;10.080;2022-11-09T07:43:41;99983.66;;;15.12;100.00
16194;BME280;8204;53.582;10.080;2022-11-09T07:46:10;99982.03;;;15.11;100.00
16194;BME280;8204;53.582;10.080;2022-11-09T07:48:38;99990.75;;;15.05;100.00
16194;BME280;8204;53.582;10.080;2022-11-09T07:51:07;99989.94;;;15.11;100.00
16194;BME280;8204;53.582;10.080;2022-11-09T07:53:37;99986.88;;;15.14;100.00
16194;BME280;8204;53.582;10.080;2022-11-09T07:56:08;99985.66;;;15.10;100.00
16194;BME280;8204;53.582;10.080;2022-11-09T07:58:37;99996.44;;;15.08;100.00
16194;BME280;8204;53.582;10.080;2022-11-09T08:01:07;99992.56;;;15.11;100.00
16194;BME280;8204;53.582;10.080;2022-11-09T08:03:36;99985.84;;;15.15;100.00
16194;BME280;8204;53.582;10.080;2022-11-09T08:06:05;99991.13;;;15.15;100.00
16194;BME280;8204;53.582;10.080;2022-11-09T08:08:34;99992.75;;;15.16;100.00
16194;BME280;8204;53.582;10.080;2022-11-09T08:11:03;99986.25;;;15.18;100.00
16194;BME280;8204;53.582;10.080;2022-11-09T08:13:34;99988.69;;;15.20;100.00
16194;BME280;8204;53.582;10.080;2022-11-09T08:16:04;99997.88;;;15.24;100.00
16194;BME280;8204;53.582;10.080;2022-11-09T08:18:32;99989.50;;;15.27;100.00
16194;BME280;8204;53.582;10.080;2022-11-09T08:21:02;99987.50;;;15.29;100.00
16194;BME280;8204;53.582;10.080;2022-11-09T08:23:31;99992.78;;;15.29;100.00
16194;BME280;8204;53.582;10.080;2022-11-09T09:52:24;100142.84;;;16.33;100.00
16194;BME280;8204;53.582;10.080;2022-11-09T09:54:58;100140.34;;;16.45;100.00
16194;BME280;8204;53.582;10.080;2022-11-09T09:57:29;100133.03;;;16.47;100.00
16194;BME280;8204;53.582;10.080;2022-11-09T10:00:00;100133.59;;;16.55;100.00
16194;BME280;8204;53.582;10.080;2022-11-09T10:02:34;100164.94;;;16.52;100.00
16194;BME280;8204;53.582;10.080;2022-11-09T10:05:06;100165.56;;;16.47;100.00
16194;BME280;8204;53.582;10.080;2022-11-09T10:07:44;100194.47;;;16.49;100.00
16194;BME280;8204;53.582;10.080;2022-11-09T10:10:36;100194.09;;;16.45;100.00
16194;BME280;8204;53.582;10.080;2022-11-09T10:16:16;100195.66;;;16.59;100.00
16194;BME280;8204;53.582;10.080;2022-11-09T10:19:01;100205.59;;;16.64;100.00
16194;BME280;8204;53.582;10.080;2022-11-09T10:21:38;100212.94;;;16.62;100.00
16194;BME280;8204;53.582;10.080;2022-11-09T10:24:23;100213.13;;;16.67;100.00
16194;BME280;8204;53.582;10.080;2022-11-09T10:26:55;100206.19;;;16.72;100.00
16194;BME280;8204;53.582;10.080;2022-11-09T10:29:26;100211.09;;;16.69;100.00
16194;BME280;8204;53.582;10.080;2022-11-09T10:31:59;100204.28;;;16.79;100.00
16194;BME280;8204;53.582;10.080;2022-11-09T10:34:31;100200.59;;;16.86;100.00
16194;BME280;8204;53.582;10.080;2022-11-09T10:37:04;100199.16;;;16.90;100.00
16194;BME280;8204;53.582;10.080;2022-11-09T10:39:43;100202.78;;;16.96;100.00
16194;BME280;8204;53.582;10.080;2022-11-09T10:42:14;100199.47;;;17.07;100.00
16194;BME280;8204;53.582;10.080;2022-11-09T10:44:43;100194.13;;;17.13;100.00
16194;BME280;8204;53.582;10.080;2022-11-09T10:47:14;100209.09;;;17.26;100.00
16194;BME280;8204;53.582;10.080;2022-11-09T10:49:43;100214.47;;;17.19;100.00
16194;BME280;8204;53.582;10.080;2022-11-09T10:52:30;100218.00;;;17.38;100.00
16194;BME280;8204;53.582;10.080;2022-11-09T10:55:25;100229.00;;;17.41;100.00
16194;BME280;8204;53.582;10.080;2022-11-09T10:57:58;100225.88;;;17.51;100.00
16194;BME280;8204;53.582;10.080;2022-11-09T11:00:27;100240.56;;;17.53;100.00
16194;BME280;8204;53.582;10.080;2022-11-09T11:03:09;100241.47;;;17.65;100.00
16194;BME280;8204;53.582;10.080;2022-11-09T11:05:38;100251.69;;;17.61;100.00
16194;BME280;8204;53.582;10.080;2022-11-09T11:08:26;100253.84;;;17.71;100.00
16194;BME280;8204;53.582;10.080;2022-11-09T11:11:25;100254.88;;;17.70;100.00
16194;BME280;8204;53.582;10.080;2022-11-09T11:14:09;100255.59;;;17.59;100.00
16194;BME280;8204;53.582;10.080;2022-11-09T11:16:39;100270.06;;;17.81;100.00
16194;BME280;8204;53.582;10.080;2022-11-09T11:19:24;100272.03;;;17.92;100.00
16194;BME280;8204;53.582;10.080;2022-11-09T11:22:11;100276.50;;;17.91;100.00
16194;BME280;8204;53.582;10.080;2022-11-09T11:24:46;100281.16;;;17.96;100.00
16194;BME280;8204;53.582;10.080;2022-11-09T11:27:27;100282.47;;;17.87;100.00
16194;BME280;8204;53.582;10.080;2022-11-09T11:30:03;100287.06;;;17.98;100.00
16194;BME280;8204;53.582;10.080;2022-11-09T11:32:33;100283.47;;;18.10;100.00
16194;BME280;8204;53.582;10.080;2022-11-09T11:35:04;100283.34;;;18.30;100.00
16194;BME280;8204;53.582;10.080;2022-11-09T11:37:47;100282.59;;;18.40;100.00
16194;BME280;8204;53.582;10.080;2022-11-09T11:40:23;100290.56;;;18.40;100.00
16194;BME280;8204;53.582;10.080;2022-11-09T11:43:15;100297.38;;;18.54;100.00
16194;BME280;8204;53.582;10.080;2022-11-09T11:45:52;100300.47;;;18.69;100.00
16194;BME280;8204;53.582;10.080;2022-11-09T11:49:06;100304.75;;;18.88;100.00
16194;BME280;8204;53.582;10.080;2022-11-09T11:51:45;100312.63;;;18.95;100.00
16194;BME280;8204;53.582;10.080;2022-11-09T11:54:23;100335.13;;;18.74;100.00
16194;BME280;8204;53.582;10.080;2022-11-09T11:57:02;100331.59;;;18.62;100.00
16194;BME280;8204;53.582;10.080;2022-11-09T11:59:46;100333.03;;;18.58;100.00
16194;BME280;8204;53.582;10.080;2022-11-09T12:02:46;100325.50;;;18.37;100.00
16194;BME280;8204;53.582;10.080;2022-11-09T12:08:14;100328.09;;;18.20;100.00
16194;BME280;8204;53.582;10.080;2022-11-09T12:10:52;100312.00;;;18.15;100.00
16194;BME280;8204;53.582;10.080;2022-11-09T12:13:35;100322.38;;;18.16;100.00
16194;BME280;8204;53.582;10.080;2022-11-09T12:16:16;100324.19;;;17.98;100.00
16194;BME280;8204;53.582;10.080;2022-11-09T12:18:53;100320.53;;;17.99;100.00
16194;BME280;8204;53.582;10.080;2022-11-09T12:21:31;100319.94;;;17.90;100.00
16194;BME280;8204;53.582;10.080;2022-11-09T12:24:14;100316.38;;;17.78;100.00
16194;BME280;8204;53.582;10.080;2022-11-09T12:27:01;100316.00;;;17.75;100.00
16194;BME280;8204;53.582;10.080;2022-11-09T12:29:39;100303.34;;;17.77;100.00
16194;BME280;8204;53.582;10.080;2022-11-09T12:32:21;100301.72;;;17.76;100.00
16194;BME280;8204;53.582;10.080;2022-11-09T12:35:03;100312.09;;;17.77;100.00
16194;BME280;8204;53.582;10.080;2022-11-09T12:37:41;100318.47;;;17.70;100.00
16194;BME280;8204;53.582;10.080;2022-11-09T12:40:19;100310.94;;;17.67;100.00
16194;BME280;8204;53.582;10.080;2022-11-09T12:42:56;100314.03;;;17.64;100.00
16194;BME280;8204;53.582;10.080;2022-11-09T12:45:28;100320.13;;;17.64;100.00
16194;BME280;8204;53.582;10.080;2022-11-09T12:48:10;100310.44;;;17.52;100.00
16194;BME280;8204;53.582;10.080;2022-11-09T12:50:43;100306.72;;;17.59;100.00
16194;BME280;8204;53.582;10.080;2022-11-09T12:53:12;100310.41;;;17.58;100.00
16194;BME280;8204;53.582;10.080;2022-11-09T12:55:46;100316.84;;;17.69;100.00
16194;BME280;8204;53.582;10.080;2022-11-09T12:58:22;100316.28;;;17.91;100.00
16194;BME280;8204;53.582;10.080;2022-11-09T13:00:54;100304.78;;;18.04;100.00
16194;BME280;8204;53.582;10.080;2022-11-09T13:03:28;100320.41;;;18.12;100.00
16194;BME280;8204;53.582;10.080;2022-11-09T13:06:15;100319.13;;;18.21;100.00
16194;BME280;8204;53.582;10.080;2022-11-09T13:08:56;100317.31;;;18.15;100.00
16194;BME280;8204;53.582;10.080;2022-11-09T13:11:34;100326.84;;;17.98;100.00
16194;BME280;8204;53.582;10.080;2022-11-09T13:14:34;100321.38;;;18.17;100.00
16194;BME280;8204;53.582;10.080;2022-11-09T13:20:41;100332.81;;;18.18;100.00
16194;BME280;8204;53.582;10.080;2022-11-09T13:23:32;100325.91;;;18.10;100.00
16194;BME280;8204;53.582;10.080;2022-11-09T13:26:03;100333.19;;;17.97;100.00
16194;BME280;8204;53.582;10.080;2022-11-09T13:31:57;100341.41;;;18.13;100.00
16194;BME280;8204;53.582;10.080;2022-11-09T13:34:44;100334.09;;;18.09;100.00
16194;BME280;8204;53.582;10.080;2022-11-09T13:37:43;100343.53;;;18.05;100.00
16194;BME280;8204;53.582;10.080;2022-11-09T13:40:38;100338.53;;;18.15;100.00
16194;BME280;8204;53.582;10.080;2022-11-09T13:43:23;100345.03;;;18.19;100.00
16194;BME280;8204;53.582;10.080;2022-11-09T13:45:54;100343.47;;;18.35;100.00
16194;BME280;8204;53.582;10.080;2022-11-09T13:48:30;100341.50;;;18.49;100.00
16194;BME280;8204;53.582;10.080;2022-11-09T13:51:02;100351.63;;;18.58;100.00
16194;BME280;8204;53.582;10.080;2022-11-09T13:53:55;100364.31;;;18.56;100.00
16194;BME280;8204;53.582;10.080;2022-11-09T13:56:30;100365.94;;;18.57;100.00
16194;BME280;8204;53.582;10.080;2022-11-09T13:59:06;100363.50;;;18.56;100.00
16194;BME280;8204;53.582;10.080;2022-11-09T14:01:45;100373.44;;;18.42;100.00
16194;BME280;8204;53.582;10.080;2022-11-09T14:04:23;100368.63;;;18.33;100.00
16194;BME280;8204;53.582;10.080;2022-11-09T14:07:00;100373.91;;;18.33;100.00
16194;BME280;8204;53.582;10.080;2022-11-09T14:09:39;100361.44;;;18.33;100.00
16194;BME280;8204;53.582;10.080;2022-11-09T14:12:24;100367.22;;;18.31;100.00
16194;BME280;8204;53.582;10.080;2022-11-09T14:15:13;100372.31;;;18.26;100.00
16194;BME280;8204;53.582;10.080;2022-11-09T14:17:51;100371.75;;;18.24;100.00
16194;BME280;8204;53.582;10.080;2022-11-09T14:20:30;100366.69;;;18.16;100.00
16194;BME280;8204;53.582;10.080;2022-11-09T14:23:15;100360.97;;;18.19;100.00
16194;BME280;8204;53.582;10.080;2022-11-09T14:25:47;100358.22;;;18.32;100.00
16194;BME280;8204;53.582;10.080;2022-11-09T14:28:22;100382.69;;;18.33;100.00
16194;BME280;8204;53.582;10.080;2022-11-09T14:30:51;100368.06;;;18.25;100.00
16194;BME280;8204;53.582;10.080;2022-11-09T14:33:24;100379.34;;;18.14;100.00
16194;BME280;8204;53.582;10.080;2022-11-09T14:35:54;100377.13;;;18.11;100.00
16194;BME280;8204;53.582;10.080;2022-11-09T14:38:27;100389.25;;;17.94;100.00
16194;BME280;8204;53.582;10.080;2022-11-09T14:41:01;100384.63;;;17.89;100.00
16194;BME280;8204;53.582;10.080;2022-11-09T14:43:35;100387.69;;;17.86;100.00
16194;BME280;8204;53.582;10.080;2022-11-09T14:46:14;100396.28;;;17.82;100.00
16194;BME280;8204;53.582;10.080;2022-11-09T14:48:49;100386.97;;;17.73;100.00
16194;BME280;8204;53.582;10.080;2022-11-09T14:51:20;100378.81;;;17.68;100.00
16194;BME280;8204;53.582;10.080;2022-11-09T14:53:49;100386.00;;;17.61;100.00